Trosper, Kentucky
Current Conditions -  °F | °C
As of 3:15 AM on Thursday 29 Jan 2015 (Local Time) from K1A6 Reporting Station
Clear Clear  
Wind Chill: 29°   Ceiling: Unl
Heat Index: 35°   Visibility: 10mi
Dew Point: 20°   Wind: 8mph
Humidity: 55%   Direction: 190°S
Pressure: 30.21"   Gusts: NA
Location:  36.79°N, 83.82°W
Report Text: K1A6 290815Z AUTO 19007KT 10SM CLR 02/M06 A3021 RMK AO2 T00181065
Loading
Personal Weather Stations






























Interactive Weather Map New forecast layout! Learn more

10-Day Weather Forecast

Advertisements
Track Severe Weather on mobile